createdAt,value
2023-04-15T00:03:31.178Z,17.5
2023-04-15T00:09:37.561Z,17.5
2023-04-15T00:15:43.657Z,17.5
2023-04-15T00:21:49.093Z,17.5
2023-04-15T00:27:54.888Z,17.5
2023-04-15T00:34:00.660Z,17.4
2023-04-15T00:40:06.005Z,17.4
2023-04-15T00:46:11.398Z,17.4
2023-04-15T00:52:17.099Z,17.4
2023-04-15T00:58:22.869Z,17.4
2023-04-15T01:04:28.569Z,17.4
2023-04-15T01:10:34.485Z,17.4
2023-04-15T01:16:39.995Z,17.4
2023-04-15T01:22:45.583Z,17.4
2023-04-15T01:28:50.990Z,17.4
2023-04-15T01:34:56.501Z,17.3
2023-04-15T01:41:02.073Z,17.3
2023-04-15T01:47:07.720Z,17.3
2023-04-15T01:53:13.238Z,17.3
2023-04-15T01:59:18.614Z,17.3
2023-04-15T02:05:24.252Z,17.3
2023-04-15T02:11:29.742Z,17.3
2023-04-15T02:17:35.602Z,17.2
2023-04-15T02:23:40.906Z,17.2
2023-04-15T02:29:46.289Z,17.2
2023-04-15T02:35:51.844Z,17.2
2023-04-15T02:41:57.831Z,17.2
2023-04-15T02:48:03.385Z,17.2
2023-04-15T02:54:09.382Z,17.2
2023-04-15T03:00:14.732Z,17.2
2023-04-15T03:06:20.123Z,17.1
2023-04-15T03:12:25.494Z,17.1
2023-04-15T03:18:31.272Z,17.1
2023-04-15T03:24:36.635Z,17.1
2023-04-15T03:30:41.619Z,17.1
2023-04-15T03:36:47.591Z,17.1
2023-04-15T03:42:53.364Z,17.1
2023-04-15T03:48:58.945Z,17
2023-04-15T03:55:04.898Z,17
2023-04-15T04:01:10.474Z,17
2023-04-15T04:07:16.058Z,17
2023-04-15T04:13:21.619Z,17
2023-04-15T04:19:27.215Z,17
2023-04-15T04:25:32.776Z,17
2023-04-15T04:31:38.995Z,16.9
2023-04-15T04:37:44.325Z,16.9
2023-04-15T04:43:50.102Z,16.9
2023-04-15T04:49:55.648Z,16.9
2023-04-15T04:56:00.699Z,16.9
2023-04-15T05:02:06.438Z,16.9
2023-04-15T05:08:12.382Z,16.9
2023-04-15T05:14:17.392Z,16.9
2023-04-15T05:20:24.608Z,16.9
2023-04-15T05:26:30.209Z,16.9
2023-04-15T05:32:35.805Z,16.9
2023-04-15T05:38:41.532Z,16.9
2023-04-15T05:44:46.708Z,16.9
2023-04-15T05:50:52.056Z,16.9
2023-04-15T05:56:57.628Z,17
2023-04-15T06:03:03.249Z,17.2
2023-04-15T06:09:08.804Z,17.4
2023-04-15T06:15:14.349Z,17.5
2023-04-15T06:21:19.858Z,17.5
2023-04-15T06:27:25.238Z,17.6
2023-04-15T06:33:30.658Z,17.6
2023-04-15T06:39:36.590Z,17.6
2023-04-15T06:45:42.587Z,17.6
2023-04-15T06:51:48.120Z,17.6
2023-04-15T06:57:53.507Z,17.6
2023-04-15T07:03:59.307Z,17.6
2023-04-15T07:10:04.714Z,17.6
2023-04-15T07:16:10.468Z,17.7
2023-04-15T07:22:15.778Z,17.7
2023-04-15T07:28:20.972Z,17.7
2023-04-15T07:34:26.320Z,17.7
2023-04-15T07:40:33.618Z,17.8
2023-04-15T07:46:39.033Z,17.8
2023-04-15T07:52:44.742Z,17.8
2023-04-15T07:58:49.910Z,17.7
2023-04-15T08:04:55.297Z,17.8
2023-04-15T08:11:01.267Z,17.9
2023-04-15T08:17:06.007Z,17.9
2023-04-15T08:23:11.112Z,17.9
2023-04-15T08:29:16.544Z,17.9
2023-04-15T08:35:21.894Z,17.9
2023-04-15T08:41:27.048Z,17.8
2023-04-15T08:47:32.677Z,17.8
2023-04-15T08:53:38.175Z,17.8
2023-04-15T08:59:43.712Z,17.7
2023-04-15T09:05:49.631Z,17.8
2023-04-15T09:11:55.959Z,17.8
2023-04-15T09:18:01.337Z,17.9
2023-04-15T09:24:07.094Z,17.9
2023-04-15T09:30:12.668Z,18
2023-04-15T09:36:18.046Z,18
2023-04-15T09:42:23.401Z,18
2023-04-15T09:48:28.570Z,18
2023-04-15T09:54:33.936Z,18.1
2023-04-15T10:00:39.294Z,18.1
2023-04-15T10:06:44.660Z,18
2023-04-15T10:12:49.819Z,18
2023-04-15T10:18:55.136Z,18
2023-04-15T10:25:00.370Z,18
2023-04-15T10:31:05.881Z,18
2023-04-15T10:37:11.268Z,18
2023-04-15T10:43:16.878Z,18.1
2023-04-15T10:49:22.231Z,18.1
2023-04-15T10:55:27.603Z,18.1
2023-04-15T11:01:32.777Z,18.2
2023-04-15T11:07:38.289Z,18.2
2023-04-15T11:13:43.858Z,18.2
2023-04-15T11:19:49.416Z,18.2
2023-04-15T11:25:54.870Z,18.2
2023-04-15T11:32:00.374Z,18
2023-04-15T11:38:05.971Z,18
2023-04-15T11:44:11.138Z,18.1
2023-04-15T11:50:16.696Z,18.1
2023-04-15T11:56:22.313Z,18
2023-04-15T12:02:28.092Z,18
2023-04-15T12:08:33.856Z,18
2023-04-15T12:14:39.415Z,18
2023-04-15T12:20:44.603Z,18
2023-04-15T12:26:49.916Z,18
2023-04-15T12:32:55.907Z,18
2023-04-15T12:39:01.093Z,18
2023-04-15T12:45:06.419Z,18.1
2023-04-15T12:51:12.216Z,18.2
2023-04-15T12:57:17.830Z,18.2
2023-04-15T13:03:22.648Z,18.2
2023-04-15T13:09:28.730Z,18.1
2023-04-15T13:15:33.898Z,18.1
2023-04-15T13:21:39.458Z,18.1
2023-04-15T13:27:45.030Z,18.1
2023-04-15T13:33:51.035Z,18.1
2023-04-15T13:39:56.582Z,18.2
2023-04-15T13:46:02.242Z,18.1
2023-04-15T13:52:07.734Z,18.1
2023-04-15T13:58:13.289Z,18.1
2023-04-15T14:04:18.960Z,18.1
2023-04-15T14:10:25.052Z,18.1
2023-04-15T14:16:30.178Z,18.1
2023-04-15T14:22:35.660Z,18.2
2023-04-15T14:28:41.216Z,18.2
2023-04-15T14:34:46.383Z,18.2
2023-04-15T14:40:51.653Z,18.2
2023-04-15T14:46:56.698Z,18.2
2023-04-15T14:53:01.863Z,18.2
2023-04-15T14:59:07.445Z,18.2
2023-04-15T15:05:12.878Z,18.2
2023-04-15T15:11:18.462Z,18.2
2023-04-15T15:17:24.136Z,18.2
2023-04-15T15:23:29.578Z,18.2
2023-04-15T15:29:35.043Z,18.2
2023-04-15T15:35:40.609Z,18.1
2023-04-15T15:41:46.046Z,18.1
2023-04-15T15:47:51.023Z,18.1
2023-04-15T15:53:57.127Z,18.1
2023-04-15T16:00:10.978Z,18.1
2023-04-15T16:06:17.281Z,18.1
2023-04-15T16:12:22.659Z,18.1
2023-04-15T16:18:28.230Z,18.1
2023-04-15T16:24:35.288Z,18.1
2023-04-15T16:30:40.668Z,18
2023-04-15T16:36:45.844Z,18
2023-04-15T16:42:51.215Z,18
2023-04-15T16:48:56.576Z,18
2023-04-15T16:55:02.150Z,18
2023-04-15T17:01:07.519Z,18
2023-04-15T17:07:12.453Z,18
2023-04-15T17:13:17.823Z,18
2023-04-15T17:19:23.796Z,18
2023-04-15T17:25:29.154Z,18
2023-04-15T17:31:34.586Z,18
2023-04-15T17:37:40.312Z,18
2023-04-15T17:43:45.682Z,18
2023-04-15T17:49:50.854Z,18
2023-04-15T17:55:56.235Z,18
2023-04-15T18:02:01.271Z,18
2023-04-15T18:08:06.329Z,17.9
2023-04-15T18:14:12.573Z,17.9
2023-04-15T18:20:33.455Z,17.9
2023-04-15T18:26:38.430Z,17.9
2023-04-15T18:32:43.418Z,17.9
2023-04-15T18:38:49.365Z,17.9
2023-04-15T18:44:54.732Z,17.9
2023-04-15T18:50:59.896Z,17.9
2023-04-15T18:57:05.284Z,17.9
2023-04-15T19:03:10.863Z,17.9
2023-04-15T19:09:16.203Z,17.9
2023-04-15T19:15:21.780Z,17.9
2023-04-15T19:21:27.340Z,17.9
2023-04-15T19:27:32.914Z,17.8
2023-04-15T19:33:38.534Z,17.8
2023-04-15T19:39:43.662Z,17.8
2023-04-15T19:45:49.281Z,17.8
2023-04-15T19:51:55.139Z,17.8
2023-04-15T19:58:00.917Z,17.8
2023-04-15T20:04:06.515Z,17.8
2023-04-15T20:10:12.973Z,17.8
2023-04-15T20:16:19.518Z,17.8
2023-04-15T20:22:25.470Z,17.8
2023-04-15T20:28:31.457Z,17.8
2023-04-15T20:34:37.027Z,17.8
2023-04-15T20:40:41.968Z,17.8
2023-04-15T20:46:47.585Z,17.8
2023-04-15T20:52:52.536Z,17.8
2023-04-15T20:58:57.477Z,17.8
2023-04-15T21:05:02.845Z,17.7
2023-04-15T21:11:08.420Z,17.7
2023-04-15T21:17:14.184Z,17.7
2023-04-15T21:23:19.762Z,17.7
2023-04-15T21:29:25.012Z,17.7
2023-04-15T21:35:30.719Z,17.7
2023-04-15T21:41:35.617Z,17.7
2023-04-15T21:47:56.725Z,17.7
2023-04-15T21:54:13.220Z,17.7
2023-04-15T22:00:18.659Z,17.7
2023-04-15T22:06:24.179Z,17.7
2023-04-15T22:12:29.761Z,17.7
2023-04-15T22:18:35.305Z,17.7
2023-04-15T22:24:41.167Z,17.7
2023-04-15T22:30:46.669Z,17.6
2023-04-15T22:36:52.036Z,17.6
2023-04-15T22:42:57.192Z,17.6
2023-04-15T22:49:02.201Z,17.6
2023-04-15T22:55:07.922Z,17.6
2023-04-15T23:01:13.416Z,17.6
2023-04-15T23:07:18.526Z,17.6
2023-04-15T23:13:23.687Z,17.6
2023-04-15T23:19:29.057Z,17.6
2023-04-15T23:25:34.401Z,17.6
2023-04-15T23:31:40.143Z,17.6
2023-04-15T23:37:45.374Z,17.5
2023-04-15T23:43:50.616Z,17.5
2023-04-15T23:49:55.886Z,17.5
2023-04-15T23:56:01.458Z,17.5
